Terminal Aerodrome Forecast
Issued by NWS Atlanta, GA

Home | Current Version | Previous Version | Text Only | Print | Product List | Glossary On
Versions: 1 2 3 4 5 6 7 8 9 10 11 12 13 14 15 16
732
FTUS42 KFFC 290133 AAA
TAFCSG
TAF AMD
KCSG 290133Z 2902/2924 28004KT P6SM FEW100 BKN250
     FM291000 25004KT P6SM SCT025
     FM291400 25007KT P6SM SCT035 SCT150
     FM291800 26009KT P6SM BKN050 PROB30 2918/2924 4SM -TSRA BR
      BKN025CB=

USA.gov is the U.S. government's official web portal to all federal, state and local government web resources and services.